sensor_id;sensor_type;location;lat;lon;timestamp;P1;durP1;ratioP1;P2;durP2;ratioP2
56141;SDS011;42018;48.588;10.836;2024-01-15T00:01:32;36.72;;;18.20;;
56141;SDS011;42018;48.588;10.836;2024-01-15T00:04:17;38.22;;;17.45;;
56141;SDS011;42018;48.588;10.836;2024-01-15T00:07:03;34.15;;;17.15;;
56141;SDS011;42018;48.588;10.836;2024-01-15T00:09:48;38.72;;;17.00;;
56141;SDS011;42018;48.588;10.836;2024-01-15T00:12:34;37.83;;;17.38;;
56141;SDS011;42018;48.588;10.836;2024-01-15T00:15:19;37.65;;;17.90;;
56141;SDS011;42018;48.588;10.836;2024-01-15T00:18:05;34.63;;;16.40;;
56141;SDS011;42018;48.588;10.836;2024-01-15T00:20:51;43.15;;;17.90;;
56141;SDS011;42018;48.588;10.836;2024-01-15T00:23:36;37.30;;;18.25;;
56141;SDS011;42018;48.588;10.836;2024-01-15T00:26:22;37.85;;;18.58;;
56141;SDS011;42018;48.588;10.836;2024-01-15T00:29:08;34.85;;;16.92;;
56141;SDS011;42018;48.588;10.836;2024-01-15T00:31:53;37.15;;;17.30;;
56141;SDS011;42018;48.588;10.836;2024-01-15T00:34:39;36.60;;;16.63;;
56141;SDS011;42018;48.588;10.836;2024-01-15T00:37:24;35.90;;;17.50;;
56141;SDS011;42018;48.588;10.836;2024-01-15T00:40:10;38.80;;;16.65;;
56141;SDS011;42018;48.588;10.836;2024-01-15T00:42:55;35.13;;;15.95;;
56141;SDS011;42018;48.588;10.836;2024-01-15T00:45:41;39.67;;;17.08;;
56141;SDS011;42018;48.588;10.836;2024-01-15T00:48:26;41.45;;;18.58;;
56141;SDS011;42018;48.588;10.836;2024-01-15T00:51:12;32.15;;;15.68;;
56141;SDS011;42018;48.588;10.836;2024-01-15T00:53:57;38.42;;;15.52;;
56141;SDS011;42018;48.588;10.836;2024-01-15T00:56:43;36.50;;;16.58;;
56141;SDS011;42018;48.588;10.836;2024-01-15T00:59:28;34.40;;;16.17;;
56141;SDS011;42018;48.588;10.836;2024-01-15T01:02:14;35.10;;;15.10;;
56141;SDS011;42018;48.588;10.836;2024-01-15T01:04:59;39.28;;;17.27;;
56141;SDS011;42018;48.588;10.836;2024-01-15T01:07:45;35.28;;;15.85;;
56141;SDS011;42018;48.588;10.836;2024-01-15T01:10:30;34.97;;;15.63;;
56141;SDS011;42018;48.588;10.836;2024-01-15T01:13:16;33.47;;;15.80;;
56141;SDS011;42018;48.588;10.836;2024-01-15T01:16:02;33.78;;;16.13;;
56141;SDS011;42018;48.588;10.836;2024-01-15T01:18:48;37.72;;;17.00;;
56141;SDS011;42018;48.588;10.836;2024-01-15T01:21:34;37.42;;;17.33;;
56141;SDS011;42018;48.588;10.836;2024-01-15T01:24:19;32.58;;;15.75;;
56141;SDS011;42018;48.588;10.836;2024-01-15T01:27:05;28.88;;;14.77;;
56141;SDS011;42018;48.588;10.836;2024-01-15T01:29:50;33.53;;;15.43;;
56141;SDS011;42018;48.588;10.836;2024-01-15T01:32:36;30.92;;;14.82;;
56141;SDS011;42018;48.588;10.836;2024-01-15T01:35:22;30.13;;;15.32;;
56141;SDS011;42018;48.588;10.836;2024-01-15T01:38:08;30.85;;;14.00;;
56141;SDS011;42018;48.588;10.836;2024-01-15T01:40:53;28.35;;;14.63;;
56141;SDS011;42018;48.588;10.836;2024-01-15T01:43:39;32.25;;;15.68;;
56141;SDS011;42018;48.588;10.836;2024-01-15T01:46:24;31.27;;;15.40;;
56141;SDS011;42018;48.588;10.836;2024-01-15T01:49:12;34.47;;;16.33;;
56141;SDS011;42018;48.588;10.836;2024-01-15T01:51:59;33.45;;;15.73;;
56141;SDS011;42018;48.588;10.836;2024-01-15T01:54:46;26.33;;;14.77;;
56141;SDS011;42018;48.588;10.836;2024-01-15T01:57:32;30.30;;;15.23;;
56141;SDS011;42018;48.588;10.836;2024-01-15T02:00:19;29.90;;;14.70;;
56141;SDS011;42018;48.588;10.836;2024-01-15T02:03:04;33.97;;;15.25;;
56141;SDS011;42018;48.588;10.836;2024-01-15T02:05:50;36.28;;;16.77;;
56141;SDS011;42018;48.588;10.836;2024-01-15T02:08:36;36.03;;;16.95;;
56141;SDS011;42018;48.588;10.836;2024-01-15T02:11:23;34.55;;;15.30;;
56141;SDS011;42018;48.588;10.836;2024-01-15T02:14:09;30.75;;;15.25;;
56141;SDS011;42018;48.588;10.836;2024-01-15T02:16:55;30.50;;;15.73;;
56141;SDS011;42018;48.588;10.836;2024-01-15T02:19:41;32.33;;;14.82;;
56141;SDS011;42018;48.588;10.836;2024-01-15T02:22:26;32.33;;;15.35;;
56141;SDS011;42018;48.588;10.836;2024-01-15T02:25:12;28.02;;;14.25;;
56141;SDS011;42018;48.588;10.836;2024-01-15T02:27:57;32.97;;;14.05;;
56141;SDS011;42018;48.588;10.836;2024-01-15T02:30:43;28.13;;;14.90;;
56141;SDS011;42018;48.588;10.836;2024-01-15T02:33:29;25.75;;;11.88;;
56141;SDS011;42018;48.588;10.836;2024-01-15T02:36:15;22.00;;;11.48;;
56141;SDS011;42018;48.588;10.836;2024-01-15T02:39:01;22.67;;;11.73;;
56141;SDS011;42018;48.588;10.836;2024-01-15T02:41:46;24.60;;;11.30;;
56141;SDS011;42018;48.588;10.836;2024-01-15T02:44:32;24.48;;;11.00;;
56141;SDS011;42018;48.588;10.836;2024-01-15T02:47:17;20.88;;;10.00;;
56141;SDS011;42018;48.588;10.836;2024-01-15T02:50:03;16.33;;;8.52;;
56141;SDS011;42018;48.588;10.836;2024-01-15T02:52:49;16.85;;;9.77;;
56141;SDS011;42018;48.588;10.836;2024-01-15T02:55:35;17.33;;;9.73;;
56141;SDS011;42018;48.588;10.836;2024-01-15T02:58:21;18.05;;;9.40;;
56141;SDS011;42018;48.588;10.836;2024-01-15T03:01:07;18.15;;;9.38;;
56141;SDS011;42018;48.588;10.836;2024-01-15T03:03:52;15.35;;;9.18;;
56141;SDS011;42018;48.588;10.836;2024-01-15T03:06:40;16.73;;;8.20;;
56141;SDS011;42018;48.588;10.836;2024-01-15T03:09:25;13.20;;;7.93;;
56141;SDS011;42018;48.588;10.836;2024-01-15T03:12:11;15.05;;;8.27;;
56141;SDS011;42018;48.588;10.836;2024-01-15T03:14:58;14.18;;;7.93;;
56141;SDS011;42018;48.588;10.836;2024-01-15T03:17:43;14.15;;;8.15;;
56141;SDS011;42018;48.588;10.836;2024-01-15T03:20:29;13.10;;;7.38;;
56141;SDS011;42018;48.588;10.836;2024-01-15T03:23:15;13.88;;;7.55;;
56141;SDS011;42018;48.588;10.836;2024-01-15T03:26:01;10.25;;;6.22;;
56141;SDS011;42018;48.588;10.836;2024-01-15T03:28:46;13.65;;;6.50;;
56141;SDS011;42018;48.588;10.836;2024-01-15T03:31:32;12.77;;;7.22;;
56141;SDS011;42018;48.588;10.836;2024-01-15T03:34:17;12.65;;;7.25;;
56141;SDS011;42018;48.588;10.836;2024-01-15T03:37:03;13.65;;;7.13;;
56141;SDS011;42018;48.588;10.836;2024-01-15T03:39:49;13.23;;;7.10;;
56141;SDS011;42018;48.588;10.836;2024-01-15T03:42:34;17.60;;;8.18;;
56141;SDS011;42018;48.588;10.836;2024-01-15T03:45:20;13.38;;;7.57;;
56141;SDS011;42018;48.588;10.836;2024-01-15T03:48:05;15.45;;;7.78;;
56141;SDS011;42018;48.588;10.836;2024-01-15T03:50:51;12.60;;;7.30;;
56141;SDS011;42018;48.588;10.836;2024-01-15T03:53:37;14.32;;;7.88;;
56141;SDS011;42018;48.588;10.836;2024-01-15T03:56:23;14.00;;;7.30;;
56141;SDS011;42018;48.588;10.836;2024-01-15T03:59:09;11.40;;;6.80;;
56141;SDS011;42018;48.588;10.836;2024-01-15T04:01:54;13.68;;;6.85;;
56141;SDS011;42018;48.588;10.836;2024-01-15T04:04:40;11.95;;;7.68;;
56141;SDS011;42018;48.588;10.836;2024-01-15T04:07:28;15.65;;;8.68;;
56141;SDS011;42018;48.588;10.836;2024-01-15T04:10:13;12.27;;;7.00;;
56141;SDS011;42018;48.588;10.836;2024-01-15T04:12:59;13.40;;;7.65;;
56141;SDS011;42018;48.588;10.836;2024-01-15T04:15:45;13.48;;;8.02;;
56141;SDS011;42018;48.588;10.836;2024-01-15T04:18:30;15.38;;;8.43;;
56141;SDS011;42018;48.588;10.836;2024-01-15T04:21:17;16.00;;;8.43;;
56141;SDS011;42018;48.588;10.836;2024-01-15T04:24:03;13.45;;;7.53;;
56141;SDS011;42018;48.588;10.836;2024-01-15T04:26:49;18.83;;;8.10;;
56141;SDS011;42018;48.588;10.836;2024-01-15T04:29:37;13.13;;;7.07;;
56141;SDS011;42018;48.588;10.836;2024-01-15T04:32:23;13.60;;;7.22;;
56141;SDS011;42018;48.588;10.836;2024-01-15T04:35:08;14.50;;;7.25;;
56141;SDS011;42018;48.588;10.836;2024-01-15T04:37:54;11.50;;;6.55;;
56141;SDS011;42018;48.588;10.836;2024-01-15T04:40:39;12.65;;;6.88;;
56141;SDS011;42018;48.588;10.836;2024-01-15T04:43:26;12.55;;;6.18;;
56141;SDS011;42018;48.588;10.836;2024-01-15T04:46:11;15.40;;;8.05;;
56141;SDS011;42018;48.588;10.836;2024-01-15T04:48:57;13.43;;;7.78;;
56141;SDS011;42018;48.588;10.836;2024-01-15T04:51:42;14.25;;;7.50;;
56141;SDS011;42018;48.588;10.836;2024-01-15T04:54:28;13.80;;;7.25;;
56141;SDS011;42018;48.588;10.836;2024-01-15T04:57:13;13.95;;;7.00;;
56141;SDS011;42018;48.588;10.836;2024-01-15T04:59:59;12.05;;;6.85;;
56141;SDS011;42018;48.588;10.836;2024-01-15T05:02:44;12.35;;;7.35;;
56141;SDS011;42018;48.588;10.836;2024-01-15T05:05:30;11.50;;;7.22;;
56141;SDS011;42018;48.588;10.836;2024-01-15T05:08:15;10.85;;;7.15;;
56141;SDS011;42018;48.588;10.836;2024-01-15T05:11:01;14.25;;;7.13;;
56141;SDS011;42018;48.588;10.836;2024-01-15T05:13:46;13.95;;;6.63;;
56141;SDS011;42018;48.588;10.836;2024-01-15T05:16:32;13.88;;;7.35;;
56141;SDS011;42018;48.588;10.836;2024-01-15T05:19:17;14.57;;;7.15;;
56141;SDS011;42018;48.588;10.836;2024-01-15T05:22:03;13.55;;;7.05;;
56141;SDS011;42018;48.588;10.836;2024-01-15T05:24:49;14.32;;;7.60;;
56141;SDS011;42018;48.588;10.836;2024-01-15T05:27:34;11.30;;;5.95;;
56141;SDS011;42018;48.588;10.836;2024-01-15T05:30:20;13.23;;;7.00;;
56141;SDS011;42018;48.588;10.836;2024-01-15T05:33:05;10.50;;;6.35;;
56141;SDS011;42018;48.588;10.836;2024-01-15T05:35:52;14.20;;;7.15;;
56141;SDS011;42018;48.588;10.836;2024-01-15T05:38:39;11.40;;;6.63;;
56141;SDS011;42018;48.588;10.836;2024-01-15T05:41:24;12.60;;;6.88;;
56141;SDS011;42018;48.588;10.836;2024-01-15T05:44:10;13.55;;;6.93;;
56141;SDS011;42018;48.588;10.836;2024-01-15T05:46:55;11.45;;;6.65;;
56141;SDS011;42018;48.588;10.836;2024-01-15T05:49:41;11.20;;;6.45;;
56141;SDS011;42018;48.588;10.836;2024-01-15T05:52:26;12.45;;;6.82;;
56141;SDS011;42018;48.588;10.836;2024-01-15T05:55:12;12.05;;;6.13;;
56141;SDS011;42018;48.588;10.836;2024-01-15T05:57:57;11.55;;;6.40;;
56141;SDS011;42018;48.588;10.836;2024-01-15T06:00:43;11.40;;;6.10;;
56141;SDS011;42018;48.588;10.836;2024-01-15T06:03:28;12.93;;;6.53;;
56141;SDS011;42018;48.588;10.836;2024-01-15T06:06:14;11.98;;;6.80;;
56141;SDS011;42018;48.588;10.836;2024-01-15T06:08:59;11.65;;;6.57;;
56141;SDS011;42018;48.588;10.836;2024-01-15T06:14:35;11.75;;;6.15;;
56141;SDS011;42018;48.588;10.836;2024-01-15T06:17:21;9.88;;;6.18;;
56141;SDS011;42018;48.588;10.836;2024-01-15T06:20:07;10.88;;;5.97;;
56141;SDS011;42018;48.588;10.836;2024-01-15T06:22:54;11.55;;;6.47;;
56141;SDS011;42018;48.588;10.836;2024-01-15T06:25:39;11.63;;;5.80;;
56141;SDS011;42018;48.588;10.836;2024-01-15T06:28:25;11.98;;;6.03;;
56141;SDS011;42018;48.588;10.836;2024-01-15T06:31:10;11.35;;;6.25;;
56141;SDS011;42018;48.588;10.836;2024-01-15T06:33:56;11.20;;;6.22;;
56141;SDS011;42018;48.588;10.836;2024-01-15T06:36:42;14.45;;;5.95;;
56141;SDS011;42018;48.588;10.836;2024-01-15T06:39:27;12.88;;;5.75;;
56141;SDS011;42018;48.588;10.836;2024-01-15T06:42:13;9.48;;;5.05;;
56141;SDS011;42018;48.588;10.836;2024-01-15T06:44:58;10.60;;;5.82;;
56141;SDS011;42018;48.588;10.836;2024-01-15T06:47:44;11.05;;;5.80;;
56141;SDS011;42018;48.588;10.836;2024-01-15T06:50:29;11.15;;;6.45;;
56141;SDS011;42018;48.588;10.836;2024-01-15T06:53:15;9.90;;;5.90;;
56141;SDS011;42018;48.588;10.836;2024-01-15T06:56:00;10.52;;;6.03;;
56141;SDS011;42018;48.588;10.836;2024-01-15T06:58:46;12.23;;;5.93;;
56141;SDS011;42018;48.588;10.836;2024-01-15T07:01:32;10.60;;;5.70;;
56141;SDS011;42018;48.588;10.836;2024-01-15T07:04:17;12.20;;;6.03;;
56141;SDS011;42018;48.588;10.836;2024-01-15T07:07:03;10.98;;;6.15;;
56141;SDS011;42018;48.588;10.836;2024-01-15T07:09:48;13.20;;;6.60;;
56141;SDS011;42018;48.588;10.836;2024-01-15T07:12:34;10.48;;;4.97;;
56141;SDS011;42018;48.588;10.836;2024-01-15T07:15:20;10.07;;;6.53;;
56141;SDS011;42018;48.588;10.836;2024-01-15T07:18:05;10.80;;;5.95;;
56141;SDS011;42018;48.588;10.836;2024-01-15T07:20:51;11.00;;;5.82;;
56141;SDS011;42018;48.588;10.836;2024-01-15T07:23:36;12.57;;;5.97;;
56141;SDS011;42018;48.588;10.836;2024-01-15T07:26:22;11.70;;;5.80;;
56141;SDS011;42018;48.588;10.836;2024-01-15T07:29:07;12.07;;;6.68;;
56141;SDS011;42018;48.588;10.836;2024-01-15T07:31:53;12.27;;;6.78;;
56141;SDS011;42018;48.588;10.836;2024-01-15T07:34:39;12.18;;;7.07;;
56141;SDS011;42018;48.588;10.836;2024-01-15T07:37:24;11.52;;;6.53;;
56141;SDS011;42018;48.588;10.836;2024-01-15T07:40:10;10.45;;;6.82;;
56141;SDS011;42018;48.588;10.836;2024-01-15T07:42:57;12.45;;;6.97;;
56141;SDS011;42018;48.588;10.836;2024-01-15T07:45:42;13.32;;;7.20;;
56141;SDS011;42018;48.588;10.836;2024-01-15T07:48:28;11.10;;;6.45;;
56141;SDS011;42018;48.588;10.836;2024-01-15T07:51:14;12.32;;;6.30;;
56141;SDS011;42018;48.588;10.836;2024-01-15T07:54:00;12.63;;;7.43;;
56141;SDS011;42018;48.588;10.836;2024-01-15T07:59:45;11.97;;;6.63;;
56141;SDS011;42018;48.588;10.836;2024-01-15T08:02:30;12.05;;;6.40;;
56141;SDS011;42018;48.588;10.836;2024-01-15T08:05:17;12.68;;;7.32;;
56141;SDS011;42018;48.588;10.836;2024-01-15T08:08:02;12.70;;;7.63;;
56141;SDS011;42018;48.588;10.836;2024-01-15T08:10:48;11.38;;;6.10;;
56141;SDS011;42018;48.588;10.836;2024-01-15T08:13:34;12.00;;;7.00;;
56141;SDS011;42018;48.588;10.836;2024-01-15T08:16:20;10.23;;;6.00;;
56141;SDS011;42018;48.588;10.836;2024-01-15T08:19:05;10.38;;;6.05;;
56141;SDS011;42018;48.588;10.836;2024-01-15T08:21:51;13.98;;;7.93;;
56141;SDS011;42018;48.588;10.836;2024-01-15T08:24:36;13.85;;;6.97;;
56141;SDS011;42018;48.588;10.836;2024-01-15T08:27:22;12.20;;;7.13;;
56141;SDS011;42018;48.588;10.836;2024-01-15T08:30:07;12.57;;;5.95;;
56141;SDS011;42018;48.588;10.836;2024-01-15T08:32:55;13.00;;;7.03;;
56141;SDS011;42018;48.588;10.836;2024-01-15T08:35:41;15.45;;;8.23;;
56141;SDS011;42018;48.588;10.836;2024-01-15T08:38:26;13.80;;;8.32;;
56141;SDS011;42018;48.588;10.836;2024-01-15T08:41:12;16.02;;;8.13;;
56141;SDS011;42018;48.588;10.836;2024-01-15T08:43:58;14.63;;;7.93;;
56141;SDS011;42018;48.588;10.836;2024-01-15T08:46:44;14.25;;;7.13;;
56141;SDS011;42018;48.588;10.836;2024-01-15T08:49:29;16.00;;;8.50;;
56141;SDS011;42018;48.588;10.836;2024-01-15T08:52:15;13.60;;;8.00;;
56141;SDS011;42018;48.588;10.836;2024-01-15T08:55:00;13.25;;;7.88;;
56141;SDS011;42018;48.588;10.836;2024-01-15T08:57:46;14.20;;;6.97;;
56141;SDS011;42018;48.588;10.836;2024-01-15T09:00:31;12.77;;;7.32;;
56141;SDS011;42018;48.588;10.836;2024-01-15T09:03:17;12.38;;;7.47;;
56141;SDS011;42018;48.588;10.836;2024-01-15T09:06:03;12.02;;;7.40;;
56141;SDS011;42018;48.588;10.836;2024-01-15T09:08:49;12.00;;;6.95;;
56141;SDS011;42018;48.588;10.836;2024-01-15T09:11:34;10.60;;;6.13;;
56141;SDS011;42018;48.588;10.836;2024-01-15T09:14:20;10.57;;;6.00;;
56141;SDS011;42018;48.588;10.836;2024-01-15T09:17:07;12.55;;;6.43;;
56141;SDS011;42018;48.588;10.836;2024-01-15T09:19:53;11.43;;;6.22;;
56141;SDS011;42018;48.588;10.836;2024-01-15T09:22:38;12.75;;;6.55;;
56141;SDS011;42018;48.588;10.836;2024-01-15T09:25:26;11.60;;;6.47;;
56141;SDS011;42018;48.588;10.836;2024-01-15T09:28:12;11.32;;;6.63;;
56141;SDS011;42018;48.588;10.836;2024-01-15T09:30:57;15.05;;;6.28;;
56141;SDS011;42018;48.588;10.836;2024-01-15T09:33:43;11.77;;;6.68;;
56141;SDS011;42018;48.588;10.836;2024-01-15T09:36:29;10.90;;;5.97;;
56141;SDS011;42018;48.588;10.836;2024-01-15T09:39:14;9.88;;;6.05;;
56141;SDS011;42018;48.588;10.836;2024-01-15T09:42:00;11.15;;;6.28;;
56141;SDS011;42018;48.588;10.836;2024-01-15T09:44:47;11.20;;;6.30;;
56141;SDS011;42018;48.588;10.836;2024-01-15T09:47:33;10.07;;;5.97;;
56141;SDS011;42018;48.588;10.836;2024-01-15T09:50:19;11.80;;;6.22;;
56141;SDS011;42018;48.588;10.836;2024-01-15T09:53:05;12.50;;;5.60;;
56141;SDS011;42018;48.588;10.836;2024-01-15T09:55:51;8.93;;;5.45;;
56141;SDS011;42018;48.588;10.836;2024-01-15T09:58:38;9.35;;;5.43;;
56141;SDS011;42018;48.588;10.836;2024-01-15T10:01:24;10.50;;;5.63;;
56141;SDS011;42018;48.588;10.836;2024-01-15T10:04:13;8.95;;;5.45;;
56141;SDS011;42018;48.588;10.836;2024-01-15T10:06:59;10.10;;;5.72;;
56141;SDS011;42018;48.588;10.836;2024-01-15T10:09:46;8.52;;;5.35;;
56141;SDS011;42018;48.588;10.836;2024-01-15T10:12:31;12.40;;;6.18;;
56141;SDS011;42018;48.588;10.836;2024-01-15T10:15:17;9.98;;;5.50;;
56141;SDS011;42018;48.588;10.836;2024-01-15T10:18:07;8.35;;;4.60;;
56141;SDS011;42018;48.588;10.836;2024-01-15T10:20:52;11.10;;;5.65;;
56141;SDS011;42018;48.588;10.836;2024-01-15T10:23:38;11.13;;;5.10;;
56141;SDS011;42018;48.588;10.836;2024-01-15T10:26:24;9.15;;;5.15;;
56141;SDS011;42018;48.588;10.836;2024-01-15T10:29:11;9.80;;;4.78;;
56141;SDS011;42018;48.588;10.836;2024-01-15T10:31:57;8.88;;;5.18;;
56141;SDS011;42018;48.588;10.836;2024-01-15T10:34:43;9.32;;;5.72;;
56141;SDS011;42018;48.588;10.836;2024-01-15T10:37:28;9.98;;;5.68;;
56141;SDS011;42018;48.588;10.836;2024-01-15T10:40:18;12.77;;;5.20;;
56141;SDS011;42018;48.588;10.836;2024-01-15T10:43:04;9.55;;;5.20;;
56141;SDS011;42018;48.588;10.836;2024-01-15T10:45:50;9.52;;;4.63;;
56141;SDS011;42018;48.588;10.836;2024-01-15T10:48:36;9.73;;;4.95;;
56141;SDS011;42018;48.588;10.836;2024-01-15T10:51:22;8.48;;;4.45;;
56141;SDS011;42018;48.588;10.836;2024-01-15T10:54:09;8.68;;;4.15;;
56141;SDS011;42018;48.588;10.836;2024-01-15T10:56:56;8.65;;;4.25;;
56141;SDS011;42018;48.588;10.836;2024-01-15T10:59:42;7.55;;;4.43;;
56141;SDS011;42018;48.588;10.836;2024-01-15T11:02:27;7.32;;;4.38;;
56141;SDS011;42018;48.588;10.836;2024-01-15T11:05:13;6.55;;;3.97;;
56141;SDS011;42018;48.588;10.836;2024-01-15T11:07:59;9.75;;;4.55;;
56141;SDS011;42018;48.588;10.836;2024-01-15T11:10:47;8.40;;;4.43;;
56141;SDS011;42018;48.588;10.836;2024-01-15T11:16:22;8.50;;;4.32;;
56141;SDS011;42018;48.588;10.836;2024-01-15T11:19:08;11.20;;;5.32;;
56141;SDS011;42018;48.588;10.836;2024-01-15T11:21:54;7.90;;;4.38;;
56141;SDS011;42018;48.588;10.836;2024-01-15T11:24:40;8.48;;;4.50;;
56141;SDS011;42018;48.588;10.836;2024-01-15T11:30:37;8.10;;;4.22;;
56141;SDS011;42018;48.588;10.836;2024-01-15T11:33:35;6.18;;;3.80;;
56141;SDS011;42018;48.588;10.836;2024-01-15T11:36:21;7.60;;;4.10;;
56141;SDS011;42018;48.588;10.836;2024-01-15T11:42:12;6.85;;;3.70;;
56141;SDS011;42018;48.588;10.836;2024-01-15T11:44:58;7.88;;;4.38;;
56141;SDS011;42018;48.588;10.836;2024-01-15T11:51:03;7.38;;;3.70;;
56141;SDS011;42018;48.588;10.836;2024-01-15T11:53:49;7.50;;;4.22;;
56141;SDS011;42018;48.588;10.836;2024-01-15T11:56:41;8.57;;;4.13;;
56141;SDS011;42018;48.588;10.836;2024-01-15T11:59:27;7.57;;;4.38;;
56141;SDS011;42018;48.588;10.836;2024-01-15T12:02:13;7.90;;;4.10;;
56141;SDS011;42018;48.588;10.836;2024-01-15T12:04:58;6.32;;;3.80;;
56141;SDS011;42018;48.588;10.836;2024-01-15T12:07:45;8.63;;;4.00;;
56141;SDS011;42018;48.588;10.836;2024-01-15T12:10:34;7.30;;;4.13;;
56141;SDS011;42018;48.588;10.836;2024-01-15T12:13:20;6.45;;;4.43;;
56141;SDS011;42018;48.588;10.836;2024-01-15T12:16:06;7.25;;;4.20;;
56141;SDS011;42018;48.588;10.836;2024-01-15T12:18:52;7.07;;;4.18;;
56141;SDS011;42018;48.588;10.836;2024-01-15T12:21:38;8.30;;;3.83;;
56141;SDS011;42018;48.588;10.836;2024-01-15T12:24:25;10.18;;;4.30;;
56141;SDS011;42018;48.588;10.836;2024-01-15T12:27:10;6.05;;;3.47;;
56141;SDS011;42018;48.588;10.836;2024-01-15T12:29:57;8.00;;;4.05;;
56141;SDS011;42018;48.588;10.836;2024-01-15T12:32:44;7.30;;;4.22;;
56141;SDS011;42018;48.588;10.836;2024-01-15T12:35:31;7.38;;;4.00;;
56141;SDS011;42018;48.588;10.836;2024-01-15T12:38:18;7.63;;;4.63;;
56141;SDS011;42018;48.588;10.836;2024-01-15T12:41:05;6.63;;;4.35;;
56141;SDS011;42018;48.588;10.836;2024-01-15T12:43:50;6.75;;;4.65;;
56141;SDS011;42018;48.588;10.836;2024-01-15T12:46:36;8.48;;;4.40;;
56141;SDS011;42018;48.588;10.836;2024-01-15T12:49:23;6.25;;;3.90;;
56141;SDS011;42018;48.588;10.836;2024-01-15T12:52:09;5.95;;;3.88;;
56141;SDS011;42018;48.588;10.836;2024-01-15T12:54:55;8.00;;;3.88;;
56141;SDS011;42018;48.588;10.836;2024-01-15T12:57:41;7.03;;;3.38;;
56141;SDS011;42018;48.588;10.836;2024-01-15T13:00:27;5.88;;;3.63;;
56141;SDS011;42018;48.588;10.836;2024-01-15T13:03:12;6.13;;;3.78;;
56141;SDS011;42018;48.588;10.836;2024-01-15T13:05:58;8.85;;;3.85;;
56141;SDS011;42018;48.588;10.836;2024-01-15T13:08:44;6.25;;;3.50;;
56141;SDS011;42018;48.588;10.836;2024-01-15T13:11:29;7.13;;;3.63;;
56141;SDS011;42018;48.588;10.836;2024-01-15T13:14:15;7.72;;;3.90;;
56141;SDS011;42018;48.588;10.836;2024-01-15T13:17:01;5.32;;;3.28;;
56141;SDS011;42018;48.588;10.836;2024-01-15T13:19:46;5.22;;;3.20;;
56141;SDS011;42018;48.588;10.836;2024-01-15T13:22:32;4.93;;;2.70;;
56141;SDS011;42018;48.588;10.836;2024-01-15T13:25:18;7.07;;;3.65;;
56141;SDS011;42018;48.588;10.836;2024-01-15T13:28:04;7.03;;;3.55;;
56141;SDS011;42018;48.588;10.836;2024-01-15T13:30:50;9.98;;;4.03;;
56141;SDS011;42018;48.588;10.836;2024-01-15T13:33:36;5.18;;;3.35;;
56141;SDS011;42018;48.588;10.836;2024-01-15T13:36:24;7.43;;;3.90;;
56141;SDS011;42018;48.588;10.836;2024-01-15T13:39:10;6.50;;;3.85;;
56141;SDS011;42018;48.588;10.836;2024-01-15T13:41:55;7.35;;;4.10;;
56141;SDS011;42018;48.588;10.836;2024-01-15T13:44:41;5.75;;;3.58;;
56141;SDS011;42018;48.588;10.836;2024-01-15T13:47:27;5.90;;;3.60;;
56141;SDS011;42018;48.588;10.836;2024-01-15T13:50:12;6.45;;;4.07;;
56141;SDS011;42018;48.588;10.836;2024-01-15T13:52:58;6.72;;;4.40;;
56141;SDS011;42018;48.588;10.836;2024-01-15T13:55:44;6.97;;;4.28;;
56141;SDS011;42018;48.588;10.836;2024-01-15T13:58:30;6.25;;;4.38;;
56141;SDS011;42018;48.588;10.836;2024-01-15T14:01:16;7.90;;;4.25;;
56141;SDS011;42018;48.588;10.836;2024-01-15T14:04:02;7.13;;;4.50;;
56141;SDS011;42018;48.588;10.836;2024-01-15T14:06:48;7.40;;;4.63;;
56141;SDS011;42018;48.588;10.836;2024-01-15T14:09:34;7.30;;;5.30;;
56141;SDS011;42018;48.588;10.836;2024-01-15T14:12:19;7.53;;;4.57;;
56141;SDS011;42018;48.588;10.836;2024-01-15T14:15:05;8.77;;;4.72;;
56141;SDS011;42018;48.588;10.836;2024-01-15T14:17:51;7.40;;;4.72;;
56141;SDS011;42018;48.588;10.836;2024-01-15T14:20:37;8.38;;;4.70;;
56141;SDS011;42018;48.588;10.836;2024-01-15T14:23:23;10.07;;;4.95;;
56141;SDS011;42018;48.588;10.836;2024-01-15T14:26:09;7.57;;;4.80;;
56141;SDS011;42018;48.588;10.836;2024-01-15T14:28:55;7.72;;;4.28;;
56141;SDS011;42018;48.588;10.836;2024-01-15T14:31:40;8.82;;;5.28;;
56141;SDS011;42018;48.588;10.836;2024-01-15T14:34:26;11.32;;;4.68;;
56141;SDS011;42018;48.588;10.836;2024-01-15T14:37:11;6.93;;;4.30;;
56141;SDS011;42018;48.588;10.836;2024-01-15T14:39:57;6.05;;;3.97;;
56141;SDS011;42018;48.588;10.836;2024-01-15T14:42:43;6.35;;;4.03;;
56141;SDS011;42018;48.588;10.836;2024-01-15T14:45:28;5.65;;;4.03;;
56141;SDS011;42018;48.588;10.836;2024-01-15T14:48:15;5.95;;;3.95;;
56141;SDS011;42018;48.588;10.836;2024-01-15T14:51:00;6.25;;;4.05;;
56141;SDS011;42018;48.588;10.836;2024-01-15T14:53:48;6.72;;;3.30;;
56141;SDS011;42018;48.588;10.836;2024-01-15T14:56:54;5.95;;;3.53;;
56141;SDS011;42018;48.588;10.836;2024-01-15T14:59:41;7.75;;;3.60;;
56141;SDS011;42018;48.588;10.836;2024-01-15T15:02:27;7.30;;;4.20;;
56141;SDS011;42018;48.588;10.836;2024-01-15T15:05:13;7.05;;;4.47;;
56141;SDS011;42018;48.588;10.836;2024-01-15T15:08:02;7.15;;;4.32;;
56141;SDS011;42018;48.588;10.836;2024-01-15T15:10:49;6.45;;;3.85;;
56141;SDS011;42018;48.588;10.836;2024-01-15T15:13:35;6.68;;;3.78;;
56141;SDS011;42018;48.588;10.836;2024-01-15T15:16:20;7.95;;;4.05;;
56141;SDS011;42018;48.588;10.836;2024-01-15T15:19:06;9.32;;;4.10;;
56141;SDS011;42018;48.588;10.836;2024-01-15T15:21:51;8.43;;;4.60;;
56141;SDS011;42018;48.588;10.836;2024-01-15T15:24:37;6.20;;;4.07;;
56141;SDS011;42018;48.588;10.836;2024-01-15T15:27:23;6.03;;;4.13;;
56141;SDS011;42018;48.588;10.836;2024-01-15T15:30:09;6.55;;;4.00;;
56141;SDS011;42018;48.588;10.836;2024-01-15T15:32:54;6.60;;;4.28;;
56141;SDS011;42018;48.588;10.836;2024-01-15T15:35:40;10.63;;;6.30;;
56141;SDS011;42018;48.588;10.836;2024-01-15T15:38:25;7.78;;;4.65;;
56141;SDS011;42018;48.588;10.836;2024-01-15T15:41:12;7.65;;;4.72;;
56141;SDS011;42018;48.588;10.836;2024-01-15T15:43:57;8.20;;;4.45;;
56141;SDS011;42018;48.588;10.836;2024-01-15T15:46:43;7.47;;;4.40;;
56141;SDS011;42018;48.588;10.836;2024-01-15T15:49:29;7.93;;;4.47;;
56141;SDS011;42018;48.588;10.836;2024-01-15T15:52:14;8.48;;;4.78;;
56141;SDS011;42018;48.588;10.836;2024-01-15T15:55:00;8.55;;;4.85;;
56141;SDS011;42018;48.588;10.836;2024-01-15T15:57:46;7.65;;;4.95;;
56141;SDS011;42018;48.588;10.836;2024-01-15T16:00:32;6.75;;;4.43;;
56141;SDS011;42018;48.588;10.836;2024-01-15T16:03:17;13.05;;;8.02;;
56141;SDS011;42018;48.588;10.836;2024-01-15T16:06:03;9.40;;;5.18;;
56141;SDS011;42018;48.588;10.836;2024-01-15T16:08:49;9.40;;;5.35;;
56141;SDS011;42018;48.588;10.836;2024-01-15T16:11:35;9.38;;;5.47;;
56141;SDS011;42018;48.588;10.836;2024-01-15T16:14:20;8.85;;;5.43;;
56141;SDS011;42018;48.588;10.836;2024-01-15T16:17:06;8.48;;;4.72;;
56141;SDS011;42018;48.588;10.836;2024-01-15T16:19:51;9.05;;;4.85;;
56141;SDS011;42018;48.588;10.836;2024-01-15T16:22:37;8.75;;;4.65;;
56141;SDS011;42018;48.588;10.836;2024-01-15T16:25:22;8.13;;;4.68;;
56141;SDS011;42018;48.588;10.836;2024-01-15T16:28:08;9.48;;;5.97;;
56141;SDS011;42018;48.588;10.836;2024-01-15T16:30:54;8.77;;;5.25;;